sensor_id;sensor_type;location;lat;lon;timestamp;pressure;altitude;pressure_sealevel;temperature;humidity
18795;BME280;29610;49.022;12.114;2024-02-14T00:00:31;98235.41;;;2.92;100.00
18795;BME280;29610;49.022;12.114;2024-02-14T00:03:00;98230.75;;;3.19;100.00
18795;BME280;29610;49.022;12.114;2024-02-14T00:05:29;98227.41;;;3.02;100.00
18795;BME280;29610;49.022;12.114;2024-02-14T00:07:58;98230.03;;;2.92;100.00
18795;BME280;29610;49.022;12.114;2024-02-14T00:10:26;98232.78;;;3.02;100.00
18795;BME280;29610;49.022;12.114;2024-02-14T00:12:55;98229.84;;;3.03;100.00
18795;BME280;29610;49.022;12.114;2024-02-14T00:15:23;98233.91;;;3.06;100.00
18795;BME280;29610;49.022;12.114;2024-02-14T00:17:52;98233.03;;;2.95;100.00
18795;BME280;29610;49.022;12.114;2024-02-14T00:20:21;98234.28;;;2.83;100.00
18795;BME280;29610;49.022;12.114;2024-02-14T00:22:53;98234.69;;;2.65;100.00
18795;BME280;29610;49.022;12.114;2024-02-14T00:25:23;98234.03;;;2.48;100.00
18795;BME280;29610;49.022;12.114;2024-02-14T00:27:54;98225.41;;;2.41;100.00
18795;BME280;29610;49.022;12.114;2024-02-14T00:30:22;98232.78;;;2.29;100.00
18795;BME280;29610;49.022;12.114;2024-02-14T00:33:09;98232.78;;;2.29;100.00
18795;BME280;29610;49.022;12.114;2024-02-14T00:35:38;98226.03;;;2.21;100.00
18795;BME280;29610;49.022;12.114;2024-02-14T00:38:06;98231.38;;;1.90;100.00
18795;BME280;29610;49.022;12.114;2024-02-14T00:40:36;98233.28;;;1.94;100.00
18795;BME280;29610;49.022;12.114;2024-02-14T00:43:04;98240.88;;;2.02;100.00
18795;BME280;29610;49.022;12.114;2024-02-14T00:45:33;98244.13;;;2.04;100.00
18795;BME280;29610;49.022;12.114;2024-02-14T00:48:02;98240.34;;;2.05;100.00
18795;BME280;29610;49.022;12.114;2024-02-14T00:50:31;98232.91;;;2.12;100.00
18795;BME280;29610;49.022;12.114;2024-02-14T00:53:00;98242.84;;;2.12;100.00
18795;BME280;29610;49.022;12.114;2024-02-14T00:55:29;98239.69;;;1.93;100.00
18795;BME280;29610;49.022;12.114;2024-02-14T00:57:58;98227.88;;;1.89;100.00
18795;BME280;29610;49.022;12.114;2024-02-14T01:00:26;98250.56;;;1.82;100.00
18795;BME280;29610;49.022;12.114;2024-02-14T01:02:55;98242.91;;;1.69;100.00
18795;BME280;29610;49.022;12.114;2024-02-14T01:05:24;98246.03;;;1.61;100.00
18795;BME280;29610;49.022;12.114;2024-02-14T01:07:53;98244.59;;;1.75;100.00
18795;BME280;29610;49.022;12.114;2024-02-14T01:10:22;98248.50;;;1.89;100.00
18795;BME280;29610;49.022;12.114;2024-02-14T01:12:50;98245.75;;;1.84;100.00
18795;BME280;29610;49.022;12.114;2024-02-14T01:15:19;98249.16;;;2.01;100.00
18795;BME280;29610;49.022;12.114;2024-02-14T01:17:49;98241.66;;;2.03;100.00
18795;BME280;29610;49.022;12.114;2024-02-14T01:20:17;98251.97;;;2.16;100.00
18795;BME280;29610;49.022;12.114;2024-02-14T01:22:46;98244.09;;;2.31;100.00
18795;BME280;29610;49.022;12.114;2024-02-14T01:25:21;98240.69;;;2.40;100.00
18795;BME280;29610;49.022;12.114;2024-02-14T01:27:50;98241.03;;;2.54;100.00
18795;BME280;29610;49.022;12.114;2024-02-14T01:30:21;98233.59;;;2.61;100.00
18795;BME280;29610;49.022;12.114;2024-02-14T01:32:49;98240.34;;;2.68;100.00
18795;BME280;29610;49.022;12.114;2024-02-14T01:35:17;98243.38;;;2.77;100.00
18795;BME280;29610;49.022;12.114;2024-02-14T01:37:45;98236.53;;;2.96;100.00
18795;BME280;29610;49.022;12.114;2024-02-14T01:40:14;98242.75;;;3.02;100.00
18795;BME280;29610;49.022;12.114;2024-02-14T01:42:52;98237.63;;;3.05;100.00
18795;BME280;29610;49.022;12.114;2024-02-14T01:45:23;98239.00;;;3.08;100.00
18795;BME280;29610;49.022;12.114;2024-02-14T01:48:00;98238.56;;;3.21;100.00
18795;BME280;29610;49.022;12.114;2024-02-14T01:50:29;98240.47;;;3.25;100.00
18795;BME280;29610;49.022;12.114;2024-02-14T01:53:01;98236.22;;;3.39;100.00
18795;BME280;29610;49.022;12.114;2024-02-14T01:55:30;98233.31;;;3.51;100.00
18795;BME280;29610;49.022;12.114;2024-02-14T01:57:59;98237.63;;;3.57;100.00
18795;BME280;29610;49.022;12.114;2024-02-14T02:00:29;98234.97;;;3.62;100.00
18795;BME280;29610;49.022;12.114;2024-02-14T02:03:03;98239.53;;;3.61;100.00
18795;BME280;29610;49.022;12.114;2024-02-14T02:05:31;98237.94;;;3.70;100.00
18795;BME280;29610;49.022;12.114;2024-02-14T02:08:01;98244.41;;;3.74;100.00
18795;BME280;29610;49.022;12.114;2024-02-14T02:10:30;98241.19;;;3.77;100.00
18795;BME280;29610;49.022;12.114;2024-02-14T02:13:18;98235.56;;;3.84;100.00
18795;BME280;29610;49.022;12.114;2024-02-14T02:16:09;98250.88;;;3.78;100.00
18795;BME280;29610;49.022;12.114;2024-02-14T02:18:58;98238.53;;;3.82;100.00
18795;BME280;29610;49.022;12.114;2024-02-14T02:21:46;98230.72;;;3.76;100.00
18795;BME280;29610;49.022;12.114;2024-02-14T02:24:16;98230.19;;;3.79;100.00
18795;BME280;29610;49.022;12.114;2024-02-14T02:26:44;98225.91;;;3.83;100.00
18795;BME280;29610;49.022;12.114;2024-02-14T02:29:33;98224.28;;;3.87;100.00
18795;BME280;29610;49.022;12.114;2024-02-14T02:32:02;98222.69;;;3.86;100.00
18795;BME280;29610;49.022;12.114;2024-02-14T02:34:32;98223.47;;;3.86;100.00
18795;BME280;29610;49.022;12.114;2024-02-14T02:37:00;98229.41;;;3.93;100.00
18795;BME280;29610;49.022;12.114;2024-02-14T02:39:48;98225.09;;;3.87;100.00
18795;BME280;29610;49.022;12.114;2024-02-14T02:42:36;98216.50;;;3.95;100.00
18795;BME280;29610;49.022;12.114;2024-02-14T02:45:25;98221.09;;;3.95;100.00
18795;BME280;29610;49.022;12.114;2024-02-14T02:48:13;98225.91;;;3.93;100.00
18795;BME280;29610;49.022;12.114;2024-02-14T02:50:56;98226.75;;;3.98;100.00
18795;BME280;29610;49.022;12.114;2024-02-14T02:53:42;98225.94;;;4.03;100.00
18795;BME280;29610;49.022;12.114;2024-02-14T02:56:32;98219.19;;;4.05;100.00
18795;BME280;29610;49.022;12.114;2024-02-14T02:59:01;98219.75;;;4.07;100.00
18795;BME280;29610;49.022;12.114;2024-02-14T03:01:35;98221.66;;;4.02;100.00
18795;BME280;29610;49.022;12.114;2024-02-14T03:04:23;98221.38;;;4.03;100.00
18795;BME280;29610;49.022;12.114;2024-02-14T03:07:32;98220.84;;;4.11;100.00
18795;BME280;29610;49.022;12.114;2024-02-14T03:10:20;98231.88;;;4.05;100.00
18795;BME280;29610;49.022;12.114;2024-02-14T03:13:10;98228.38;;;4.14;100.00
18795;BME280;29610;49.022;12.114;2024-02-14T03:15:59;98214.41;;;4.17;100.00
18795;BME280;29610;49.022;12.114;2024-02-14T03:18:27;98218.94;;;4.12;100.00
18795;BME280;29610;49.022;12.114;2024-02-14T03:20:55;98225.97;;;4.18;100.00
18795;BME280;29610;49.022;12.114;2024-02-14T03:23:24;98231.06;;;4.09;100.00
18795;BME280;29610;49.022;12.114;2024-02-14T03:25:52;98231.34;;;4.13;100.00
18795;BME280;29610;49.022;12.114;2024-02-14T03:28:20;98231.88;;;4.20;100.00
18795;BME280;29610;49.022;12.114;2024-02-14T03:30:49;98226.50;;;4.25;100.00
18795;BME280;29610;49.022;12.114;2024-02-14T03:33:17;98235.13;;;4.27;100.00
18795;BME280;29610;49.022;12.114;2024-02-14T03:35:46;98230.28;;;4.29;100.00
18795;BME280;29610;49.022;12.114;2024-02-14T03:38:25;98233.50;;;4.31;100.00
18795;BME280;29610;49.022;12.114;2024-02-14T03:40:53;98230.00;;;4.20;100.00
18795;BME280;29610;49.022;12.114;2024-02-14T03:43:23;98243.72;;;4.24;100.00
18795;BME280;29610;49.022;12.114;2024-02-14T03:45:51;98237.56;;;4.33;100.00
18795;BME280;29610;49.022;12.114;2024-02-14T03:48:19;98239.44;;;4.43;100.00
18795;BME280;29610;49.022;12.114;2024-02-14T03:50:48;98227.84;;;4.32;100.00
18795;BME280;29610;49.022;12.114;2024-02-14T03:53:16;98228.38;;;4.34;100.00
18795;BME280;29610;49.022;12.114;2024-02-14T03:55:45;98226.78;;;4.38;100.00
18795;BME280;29610;49.022;12.114;2024-02-14T03:58:13;98225.16;;;4.22;100.00
18795;BME280;29610;49.022;12.114;2024-02-14T04:00:44;98226.50;;;4.30;100.00
18795;BME280;29610;49.022;12.114;2024-02-14T04:03:15;98232.44;;;4.32;100.00
18795;BME280;29610;49.022;12.114;2024-02-14T04:05:44;98230.28;;;4.24;100.00
18795;BME280;29610;49.022;12.114;2024-02-14T04:08:15;98235.94;;;4.22;100.00
18795;BME280;29610;49.022;12.114;2024-02-14T04:10:43;98233.78;;;4.19;100.00
18795;BME280;29610;49.022;12.114;2024-02-14T04:13:11;98224.34;;;4.22;100.00
18795;BME280;29610;49.022;12.114;2024-02-14T04:15:40;98227.31;;;4.20;100.00
18795;BME280;29610;49.022;12.114;2024-02-14T04:18:14;98228.41;;;4.19;100.00
18795;BME280;29610;49.022;12.114;2024-02-14T04:20:45;98231.06;;;4.24;100.00
18795;BME280;29610;49.022;12.114;2024-02-14T04:23:13;98234.59;;;4.30;100.00
18795;BME280;29610;49.022;12.114;2024-02-14T04:25:42;98231.88;;;4.25;100.00
18795;BME280;29610;49.022;12.114;2024-02-14T04:28:10;98233.53;;;4.26;100.00
18795;BME280;29610;49.022;12.114;2024-02-14T04:30:39;98242.38;;;4.31;100.00
18795;BME280;29610;49.022;12.114;2024-02-14T04:33:15;98235.94;;;4.22;100.00
18795;BME280;29610;49.022;12.114;2024-02-14T04:35:45;98227.88;;;4.27;100.00
18795;BME280;29610;49.022;12.114;2024-02-14T04:38:13;98239.69;;;4.26;100.00
18795;BME280;29610;49.022;12.114;2024-02-14T04:40:41;98245.06;;;4.11;100.00
18795;BME280;29610;49.022;12.114;2024-02-14T04:43:09;98245.84;;;4.17;100.00
18795;BME280;29610;49.022;12.114;2024-02-14T04:45:38;98250.69;;;4.15;100.00
18795;BME280;29610;49.022;12.114;2024-02-14T04:48:07;98253.16;;;4.16;100.00
18795;BME280;29610;49.022;12.114;2024-02-14T04:50:37;98250.44;;;4.21;100.00
18795;BME280;29610;49.022;12.114;2024-02-14T04:53:05;98243.16;;;4.17;100.00
18795;BME280;29610;49.022;12.114;2024-02-14T04:55:33;98248.00;;;4.15;100.00
18795;BME280;29610;49.022;12.114;2024-02-14T04:58:02;98245.31;;;4.15;100.00
18795;BME280;29610;49.022;12.114;2024-02-14T05:00:31;98250.69;;;4.20;100.00
18795;BME280;29610;49.022;12.114;2024-02-14T05:03:00;98248.00;;;4.20;100.00
18795;BME280;29610;49.022;12.114;2024-02-14T05:05:28;98248.00;;;4.15;100.00
18795;BME280;29610;49.022;12.114;2024-02-14T05:08:00;98256.06;;;4.00;100.00
18795;BME280;29610;49.022;12.114;2024-02-14T05:10:29;98250.41;;;4.01;100.00
18795;BME280;29610;49.022;12.114;2024-02-14T05:12:57;98257.13;;;3.99;100.00
18795;BME280;29610;49.022;12.114;2024-02-14T05:15:26;98257.13;;;3.94;100.00
18795;BME280;29610;49.022;12.114;2024-02-14T05:17:54;98257.63;;;3.81;100.00
18795;BME280;29610;49.022;12.114;2024-02-14T05:20:23;98255.72;;;3.76;100.00
18795;BME280;29610;49.022;12.114;2024-02-14T05:22:51;98258.91;;;3.68;100.00
18795;BME280;29610;49.022;12.114;2024-02-14T05:25:21;98254.84;;;3.61;100.00
18795;BME280;29610;49.022;12.114;2024-02-14T05:27:55;98248.44;;;3.67;100.00
18795;BME280;29610;49.022;12.114;2024-02-14T05:30:23;98243.03;;;3.62;100.00
18795;BME280;29610;49.022;12.114;2024-02-14T05:33:02;98251.88;;;3.62;100.00
18795;BME280;29610;49.022;12.114;2024-02-14T05:35:30;98246.00;;;3.70;100.00
18795;BME280;29610;49.022;12.114;2024-02-14T05:37:59;98251.13;;;3.77;100.00
18795;BME280;29610;49.022;12.114;2024-02-14T05:40:28;98252.19;;;3.71;100.00
18795;BME280;29610;49.022;12.114;2024-02-14T05:42:56;98258.66;;;3.70;100.00
18795;BME280;29610;49.022;12.114;2024-02-14T05:45:25;98252.47;;;3.74;100.00
18795;BME280;29610;49.022;12.114;2024-02-14T05:47:54;98260.84;;;3.78;100.00
18795;BME280;29610;49.022;12.114;2024-02-14T05:50:22;98256.50;;;3.77;100.00
18795;BME280;29610;49.022;12.114;2024-02-14T05:52:51;98261.91;;;3.82;100.00
18795;BME280;29610;49.022;12.114;2024-02-14T05:55:19;98266.50;;;3.81;100.00
18795;BME280;29610;49.022;12.114;2024-02-14T05:57:52;98256.81;;;3.85;100.00
18795;BME280;29610;49.022;12.114;2024-02-14T06:00:21;98262.44;;;3.79;100.00
18795;BME280;29610;49.022;12.114;2024-02-14T06:02:54;98255.47;;;3.83;100.00
18795;BME280;29610;49.022;12.114;2024-02-14T06:05:23;98253.84;;;3.82;100.00
18795;BME280;29610;49.022;12.114;2024-02-14T06:07:51;98250.88;;;3.73;100.00
18795;BME280;29610;49.022;12.114;2024-02-14T06:10:19;98262.19;;;3.85;100.00
18795;BME280;29610;49.022;12.114;2024-02-14T06:12:48;98264.88;;;3.80;100.00
18795;BME280;29610;49.022;12.114;2024-02-14T06:15:18;98269.75;;;3.93;100.00
18795;BME280;29610;49.022;12.114;2024-02-14T06:17:46;98272.69;;;3.92;100.00
18795;BME280;29610;49.022;12.114;2024-02-14T06:20:15;98272.16;;;3.95;100.00
18795;BME280;29610;49.022;12.114;2024-02-14T06:22:44;98277.56;;;3.95;100.00
18795;BME280;29610;49.022;12.114;2024-02-14T06:25:23;98286.44;;;4.05;100.00
18795;BME280;29610;49.022;12.114;2024-02-14T06:27:58;98286.97;;;4.02;100.00
18795;BME280;29610;49.022;12.114;2024-02-14T06:30:28;98285.34;;;3.96;100.00
18795;BME280;29610;49.022;12.114;2024-02-14T06:32:59;98297.78;;;4.17;100.00
18795;BME280;29610;49.022;12.114;2024-02-14T06:35:30;98298.88;;;4.31;100.00
18795;BME280;29610;49.022;12.114;2024-02-14T06:37:59;98302.69;;;4.45;100.00
18795;BME280;29610;49.022;12.114;2024-02-14T06:40:32;98316.13;;;4.45;100.00
18795;BME280;29610;49.022;12.114;2024-02-14T06:43:00;98313.44;;;4.50;100.00
18795;BME280;29610;49.022;12.114;2024-02-14T06:45:30;98323.97;;;4.57;100.00
18795;BME280;29610;49.022;12.114;2024-02-14T06:48:07;98320.72;;;4.60;100.00
18795;BME280;29610;49.022;12.114;2024-02-14T06:50:36;98315.38;;;4.70;100.00
18795;BME280;29610;49.022;12.114;2024-02-14T06:53:07;98318.34;;;4.74;100.00
18795;BME280;29610;49.022;12.114;2024-02-14T06:55:35;98318.59;;;4.67;100.00
18795;BME280;29610;49.022;12.114;2024-02-14T06:58:03;98320.75;;;4.70;100.00
18795;BME280;29610;49.022;12.114;2024-02-14T07:00:34;98327.75;;;4.76;100.00
18795;BME280;29610;49.022;12.114;2024-02-14T07:03:02;98328.28;;;4.73;100.00
18795;BME280;29610;49.022;12.114;2024-02-14T07:05:31;98328.56;;;4.72;100.00
18795;BME280;29610;49.022;12.114;2024-02-14T07:07:59;98318.31;;;4.84;100.00
18795;BME280;29610;49.022;12.114;2024-02-14T07:10:28;98317.00;;;4.91;100.00
18795;BME280;29610;49.022;12.114;2024-02-14T07:12:56;98313.75;;;4.99;100.00
18795;BME280;29610;49.022;12.114;2024-02-14T07:15:24;98314.81;;;4.93;100.00
18795;BME280;29610;49.022;12.114;2024-02-14T07:17:57;98319.13;;;5.04;100.00
18795;BME280;29610;49.022;12.114;2024-02-14T07:20:26;98311.56;;;5.06;100.00
18795;BME280;29610;49.022;12.114;2024-02-14T07:22:55;98312.41;;;5.17;100.00
18795;BME280;29610;49.022;12.114;2024-02-14T07:25:23;98305.91;;;5.13;100.00
18795;BME280;29610;49.022;12.114;2024-02-14T07:27:52;98306.97;;;5.27;100.00
18795;BME280;29610;49.022;12.114;2024-02-14T07:30:20;98308.53;;;5.48;100.00
18795;BME280;29610;49.022;12.114;2024-02-14T07:32:48;98314.75;;;5.48;100.00
18795;BME280;29610;49.022;12.114;2024-02-14T07:35:19;98317.19;;;5.50;100.00
18795;BME280;29610;49.022;12.114;2024-02-14T07:37:48;98317.44;;;5.53;100.00
18795;BME280;29610;49.022;12.114;2024-02-14T07:40:16;98328.47;;;5.62;100.00
18795;BME280;29610;49.022;12.114;2024-02-14T07:43:03;98331.38;;;5.80;100.00
18795;BME280;29610;49.022;12.114;2024-02-14T07:45:34;98326.78;;;5.91;100.00
18795;BME280;29610;49.022;12.114;2024-02-14T07:48:02;98322.22;;;5.86;100.00
18795;BME280;29610;49.022;12.114;2024-02-14T07:50:33;98334.59;;;5.92;100.00
18795;BME280;29610;49.022;12.114;2024-02-14T07:53:01;98342.97;;;5.91;100.00
18795;BME280;29610;49.022;12.114;2024-02-14T07:55:30;98338.28;;;6.17;100.00
18795;BME280;29610;49.022;12.114;2024-02-14T07:57:58;98336.72;;;6.06;100.00
18795;BME280;29610;49.022;12.114;2024-02-14T08:00:27;98327.31;;;5.98;100.00
18795;BME280;29610;49.022;12.114;2024-02-14T08:02:55;98330.28;;;5.91;100.00
18795;BME280;29610;49.022;12.114;2024-02-14T08:05:23;98331.91;;;5.87;100.00
18795;BME280;29610;49.022;12.114;2024-02-14T08:07:53;98338.56;;;6.10;100.00
18795;BME280;29610;49.022;12.114;2024-02-14T08:10:22;98335.28;;;6.18;100.00
18795;BME280;29610;49.022;12.114;2024-02-14T08:12:50;98335.69;;;6.45;100.00
18795;BME280;29610;49.022;12.114;2024-02-14T08:15:19;98331.41;;;6.39;100.00
18795;BME280;29610;49.022;12.114;2024-02-14T08:17:48;98336.88;;;6.24;100.00
18795;BME280;29610;49.022;12.114;2024-02-14T08:20:16;98334.94;;;6.40;100.00
18795;BME280;29610;49.022;12.114;2024-02-14T08:22:55;98315.47;;;6.43;100.00
18795;BME280;29610;49.022;12.114;2024-02-14T08:25:23;98325.19;;;6.39;100.00
18795;BME280;29610;49.022;12.114;2024-02-14T08:27:52;98313.91;;;6.32;100.00
18795;BME280;29610;49.022;12.114;2024-02-14T08:30:20;98315.56;;;6.66;100.00
18795;BME280;29610;49.022;12.114;2024-02-14T08:32:48;98312.31;;;6.69;100.00
18795;BME280;29610;49.022;12.114;2024-02-14T08:35:17;98312.22;;;6.84;100.00
18795;BME280;29610;49.022;12.114;2024-02-14T08:37:45;98318.38;;;6.90;100.00
18795;BME280;29610;49.022;12.114;2024-02-14T08:40:15;98320.44;;;7.03;100.00
18795;BME280;29610;49.022;12.114;2024-02-14T08:42:43;98323.50;;;6.86;100.00
18795;BME280;29610;49.022;12.114;2024-02-14T08:45:12;98319.34;;;6.99;100.00
18795;BME280;29610;49.022;12.114;2024-02-14T08:47:43;98317.03;;;6.87;100.00
18795;BME280;29610;49.022;12.114;2024-02-14T08:50:12;98318.22;;;6.76;100.00
18795;BME280;29610;49.022;12.114;2024-02-14T08:52:41;98313.84;;;6.80;100.00
18795;BME280;29610;49.022;12.114;2024-02-14T08:55:09;98315.44;;;6.81;100.00
18795;BME280;29610;49.022;12.114;2024-02-14T08:57:45;98315.22;;;6.78;100.00
18795;BME280;29610;49.022;12.114;2024-02-14T09:00:16;98318.31;;;6.95;100.00
18795;BME280;29610;49.022;12.114;2024-02-14T09:02:47;98314.13;;;7.12;100.00
18795;BME280;29610;49.022;12.114;2024-02-14T09:05:16;98327.56;;;7.22;100.00
18795;BME280;29610;49.022;12.114;2024-02-14T09:07:45;98330.53;;;7.50;100.00
18795;BME280;29610;49.022;12.114;2024-02-14T09:10:14;98331.25;;;7.84;100.00
18795;BME280;29610;49.022;12.114;2024-02-14T09:12:44;98335.72;;;7.93;100.00
18795;BME280;29610;49.022;12.114;2024-02-14T09:15:13;98336.84;;;7.92;100.00
18795;BME280;29610;49.022;12.114;2024-02-14T09:17:42;98335.44;;;7.95;100.00
18795;BME280;29610;49.022;12.114;2024-02-14T09:20:11;98337.69;;;7.88;100.00
18795;BME280;29610;49.022;12.114;2024-02-14T09:22:41;98349.44;;;7.78;100.00
18795;BME280;29610;49.022;12.114;2024-02-14T09:25:09;98350.66;;;7.91;100.00
18795;BME280;29610;49.022;12.114;2024-02-14T09:27:38;98351.63;;;8.00;100.00
18795;BME280;29610;49.022;12.114;2024-02-14T09:30:09;98339.50;;;7.74;100.00
18795;BME280;29610;49.022;12.114;2024-02-14T09:32:54;98336.59;;;7.89;100.00
18795;BME280;29610;49.022;12.114;2024-02-14T09:35:23;98331.94;;;7.94;100.00
18795;BME280;29610;49.022;12.114;2024-02-14T09:37:52;98327.66;;;8.12;100.00
18795;BME280;29610;49.022;12.114;2024-02-14T09:40:21;98332.72;;;8.60;100.00
18795;BME280;29610;49.022;12.114;2024-02-14T09:42:54;98331.28;;;9.00;100.00
18795;BME280;29610;49.022;12.114;2024-02-14T09:45:25;98326.63;;;9.19;100.00
18795;BME280;29610;49.022;12.114;2024-02-14T09:47:54;98327.31;;;9.11;100.00
18795;BME280;29610;49.022;12.114;2024-02-14T09:50:24;98334.91;;;9.28;100.00
18795;BME280;29610;49.022;12.114;2024-02-14T09:52:54;98336.69;;;9.19;100.00
18795;BME280;29610;49.022;12.114;2024-02-14T09:55:25;98333.00;;;9.28;100.00
18795;BME280;29610;49.022;12.114;2024-02-14T09:57:54;98336.34;;;9.39;100.00
18795;BME280;29610;49.022;12.114;2024-02-14T10:00:25;98324.22;;;9.18;100.00
18795;BME280;29610;49.022;12.114;2024-02-14T10:02:55;98329.75;;;9.13;100.00
18795;BME280;29610;49.022;12.114;2024-02-14T10:05:23;98320.13;;;8.69;100.00
18795;BME280;29610;49.022;12.114;2024-02-14T10:07:52;98326.06;;;8.90;100.00
18795;BME280;29610;49.022;12.114;2024-02-14T10:10:24;98322.00;;;9.06;100.00
18795;BME280;29610;49.022;12.114;2024-02-14T10:12:54;98320.44;;;9.32;100.00
18795;BME280;29610;49.022;12.114;2024-02-14T10:15:25;98325.66;;;9.29;100.00
18795;BME280;29610;49.022;12.114;2024-02-14T10:17:53;98325.72;;;9.10;100.00
18795;BME280;29610;49.022;12.114;2024-02-14T10:20:21;98338.25;;;9.38;100.00
18795;BME280;29610;49.022;12.114;2024-02-14T10:22:50;98335.66;;;9.47;100.00
18795;BME280;29610;49.022;12.114;2024-02-14T10:25:18;98337.28;;;9.61;100.00
18795;BME280;29610;49.022;12.114;2024-02-14T10:27:48;98329.00;;;9.39;100.00
18795;BME280;29610;49.022;12.114;2024-02-14T10:30:17;98329.41;;;9.46;100.00
18795;BME280;29610;49.022;12.114;2024-02-14T10:32:47;98316.09;;;9.77;100.00
18795;BME280;29610;49.022;12.114;2024-02-14T10:35:16;98319.41;;;10.01;100.00
18795;BME280;29610;49.022;12.114;2024-02-14T10:37:47;98325.34;;;9.76;100.00
18795;BME280;29610;49.022;12.114;2024-02-14T10:40:16;98333.88;;;9.69;100.00
18795;BME280;29610;49.022;12.114;2024-02-14T10:42:46;98333.31;;;9.99;100.00
18795;BME280;29610;49.022;12.114;2024-02-14T10:45:14;98328.06;;;9.89;100.00
18795;BME280;29610;49.022;12.114;2024-02-14T10:47:52;98337.16;;;9.53;100.00
18795;BME280;29610;49.022;12.114;2024-02-14T10:50:22;98332.94;;;9.15;100.00
18795;BME280;29610;49.022;12.114;2024-02-14T10:52:57;98337.31;;;9.29;100.00
18795;BME280;29610;49.022;12.114;2024-02-14T10:55:30;98327.16;;;9.67;100.00
18795;BME280;29610;49.022;12.114;2024-02-14T10:57:59;98328.59;;;9.78;100.00
18795;BME280;29610;49.022;12.114;2024-02-14T11:00:28;98325.25;;;9.94;100.00
18795;BME280;29610;49.022;12.114;2024-02-14T11:03:00;98315.41;;;9.71;100.00
18795;BME280;29610;49.022;12.114;2024-02-14T11:05:29;98321.97;;;9.38;100.00
18795;BME280;29610;49.022;12.114;2024-02-14T11:08:08;98322.00;;;9.65;100.00
18795;BME280;29610;49.022;12.114;2024-02-14T11:10:38;98309.97;;;9.71;100.00
18795;BME280;29610;49.022;12.114;2024-02-14T11:13:12;98315.59;;;9.61;100.00
18795;BME280;29610;49.022;12.114;2024-02-14T11:15:45;98316.13;;;9.90;100.00
18795;BME280;29610;49.022;12.114;2024-02-14T11:18:25;98308.75;;;10.04;100.00
18795;BME280;29610;49.022;12.114;2024-02-14T11:20:54;98311.09;;;10.11;100.00
18795;BME280;29610;49.022;12.114;2024-02-14T11:23:24;98305.06;;;10.14;100.00
18795;BME280;29610;49.022;12.114;2024-02-14T11:26:00;98302.63;;;9.99;100.00
18795;BME280;29610;49.022;12.114;2024-02-14T11:28:29;98299.81;;;9.77;100.00
18795;BME280;29610;49.022;12.114;2024-02-14T11:31:00;98292.75;;;9.62;100.00
18795;BME280;29610;49.022;12.114;2024-02-14T11:33:32;98291.47;;;9.60;100.00
18795;BME280;29610;49.022;12.114;2024-02-14T11:36:08;98287.97;;;9.73;100.00
18795;BME280;29610;49.022;12.114;2024-02-14T11:38:40;98284.53;;;9.81;100.00
18795;BME280;29610;49.022;12.114;2024-02-14T11:41:11;98287.84;;;9.91;100.00
18795;BME280;29610;49.022;12.114;2024-02-14T11:43:39;98276.09;;;9.82;100.00
18795;BME280;29610;49.022;12.114;2024-02-14T11:46:07;98283.34;;;10.14;100.00
18795;BME280;29610;49.022;12.114;2024-02-14T11:48:38;98276.47;;;10.30;100.00
18795;BME280;29610;49.022;12.114;2024-02-14T11:51:09;98279.94;;;10.80;100.00
18795;BME280;29610;49.022;12.114;2024-02-14T11:53:38;98281.03;;;10.79;100.00
18795;BME280;29610;49.022;12.114;2024-02-14T11:56:08;98283.22;;;10.90;100.00
18795;BME280;29610;49.022;12.114;2024-02-14T11:58:36;98286.66;;;11.04;100.00
18795;BME280;29610;49.022;12.114;2024-02-14T12:01:05;98280.38;;;11.17;100.00
18795;BME280;29610;49.022;12.114;2024-02-14T12:03:33;98287.28;;;11.23;100.00
18795;BME280;29610;49.022;12.114;2024-02-14T12:06:04;98285.16;;;10.90;100.00
18795;BME280;29610;49.022;12.114;2024-02-14T12:08:34;98274.50;;;10.80;100.00
18795;BME280;29610;49.022;12.114;2024-02-14T12:11:02;98277.59;;;10.87;100.00
18795;BME280;29610;49.022;12.114;2024-02-14T12:13:31;98282.44;;;11.12;100.00
18795;BME280;29610;49.022;12.114;2024-02-14T12:16:00;98276.97;;;11.12;100.00
18795;BME280;29610;49.022;12.114;2024-02-14T12:18:28;98275.47;;;11.06;100.00
18795;BME280;29610;49.022;12.114;2024-02-14T12:21:05;98278.41;;;10.87;100.00
18795;BME280;29610;49.022;12.114;2024-02-14T12:23:35;98274.81;;;10.78;100.00
18795;BME280;29610;49.022;12.114;2024-02-14T12:26:04;98282.78;;;10.75;100.00
18795;BME280;29610;49.022;12.114;2024-02-14T12:28:33;98281.72;;;10.62;100.00
18795;BME280;29610;49.022;12.114;2024-02-14T12:31:02;98283.75;;;10.57;100.00
18795;BME280;29610;49.022;12.114;2024-02-14T12:33:30;98277.16;;;10.35;100.00
18795;BME280;29610;49.022;12.114;2024-02-14T12:35:59;98286.16;;;10.58;100.00
18795;BME280;29610;49.022;12.114;2024-02-14T12:38:30;98282.97;;;11.00;100.00
18795;BME280;29610;49.022;12.114;2024-02-14T12:41:00;98285.19;;;10.98;100.00
18795;BME280;29610;49.022;12.114;2024-02-14T12:43:29;98274.00;;;11.00;100.00
18795;BME280;29610;49.022;12.114;2024-02-14T12:45:57;98269.94;;;10.89;100.00
18795;BME280;29610;49.022;12.114;2024-02-14T12:48:26;98265.16;;;11.16;100.00
18795;BME280;29610;49.022;12.114;2024-02-14T12:50:55;98257.47;;;11.40;100.00
18795;BME280;29610;49.022;12.114;2024-02-14T12:53:24;98257.59;;;11.66;100.00
18795;BME280;29610;49.022;12.114;2024-02-14T12:55:55;98259.75;;;11.47;100.00
18795;BME280;29610;49.022;12.114;2024-02-14T12:58:23;98249.19;;;11.54;100.00
18795;BME280;29610;49.022;12.114;2024-02-14T13:00:52;98249.00;;;11.81;100.00
18795;BME280;29610;49.022;12.114;2024-02-14T13:03:20;98239.81;;;12.25;100.00
18795;BME280;29610;49.022;12.114;2024-02-14T13:05:49;98237.13;;;12.50;100.00